createdAt,value
2022-08-20T00:02:04.576Z,26.10
2022-08-20T00:04:09.487Z,26.10
2022-08-20T00:06:21.226Z,26.10
2022-08-20T00:08:26.673Z,25.90
2022-08-20T00:10:34.619Z,26.00
2022-08-20T00:12:45.843Z,26.00
2022-08-20T00:14:50.225Z,26.10
2022-08-20T00:16:55.057Z,26.20
2022-08-20T00:19:06.835Z,26.20
2022-08-20T00:21:12.599Z,26.20
2022-08-20T00:23:24.545Z,26.30
2022-08-20T00:25:32.969Z,26.30
2022-08-20T00:27:41.243Z,26.30
2022-08-20T00:29:46.564Z,26.40
2022-08-20T00:31:56.132Z,26.40
2022-08-20T00:34:01.246Z,26.40
2022-08-20T00:36:10.358Z,26.40
2022-08-20T00:38:21.659Z,26.40
2022-08-20T00:40:45.013Z,26.40
2022-08-20T00:42:54.181Z,26.50
2022-08-20T00:45:04.460Z,26.50
2022-08-20T00:47:10.303Z,26.50
2022-08-20T00:49:19.422Z,26.40
2022-08-20T00:51:46.922Z,26.50
2022-08-20T00:53:51.526Z,26.50
2022-08-20T00:55:58.743Z,26.40
2022-08-20T00:58:09.200Z,26.50
2022-08-20T01:00:17.444Z,26.50
2022-08-20T01:02:23.165Z,26.50
2022-08-20T01:04:32.375Z,26.50
2022-08-20T01:06:36.832Z,26.60
2022-08-20T01:08:43.694Z,26.60
2022-08-20T01:10:53.055Z,26.60
2022-08-20T01:12:59.257Z,26.60
2022-08-20T01:15:10.494Z,26.70
2022-08-20T01:17:21.979Z,26.80
2022-08-20T01:19:37.618Z,26.80
2022-08-20T01:21:42.138Z,26.80
2022-08-20T01:24:13.569Z,26.80
2022-08-20T01:26:22.607Z,26.70
2022-08-20T01:28:45.801Z,26.80
2022-08-20T01:30:54.494Z,26.80
2022-08-20T01:32:58.941Z,26.80
2022-08-20T01:35:03.556Z,26.90
2022-08-20T01:37:11.866Z,26.80
2022-08-20T01:39:22.064Z,26.80
2022-08-20T01:41:51.010Z,26.80
2022-08-20T01:44:00.239Z,26.80
2022-08-20T01:46:05.867Z,26.80
2022-08-20T01:48:10.674Z,26.80
2022-08-20T01:50:27.539Z,26.80
2022-08-20T01:52:44.803Z,26.90
2022-08-20T01:54:49.609Z,26.80
2022-08-20T01:57:00.120Z,26.80
2022-08-20T01:59:07.793Z,26.80
2022-08-20T02:01:28.561Z,26.80
2022-08-20T02:03:38.832Z,26.80
2022-08-20T02:05:46.245Z,26.80
2022-08-20T02:07:50.734Z,26.80
2022-08-20T02:09:57.156Z,26.90
2022-08-20T02:12:01.697Z,26.90
2022-08-20T02:14:08.262Z,27.00
2022-08-20T02:16:17.627Z,27.10
2022-08-20T02:18:22.067Z,27.10
2022-08-20T02:20:30.134Z,27.10
2022-08-20T02:22:50.073Z,27.10
2022-08-20T02:24:55.394Z,27.00
2022-08-20T02:26:59.961Z,27.10
2022-08-20T02:29:09.927Z,27.00
2022-08-20T02:31:14.304Z,26.90
2022-08-20T02:33:19.482Z,26.90
2022-08-20T02:35:27.367Z,26.90
2022-08-20T02:37:32.258Z,26.90
2022-08-20T02:39:36.767Z,26.90
2022-08-20T02:41:41.829Z,26.90
2022-08-20T02:43:46.247Z,27.00
2022-08-20T02:45:50.833Z,27.00
2022-08-20T02:48:00.273Z,27.00
2022-08-20T02:50:07.753Z,27.00
2022-08-20T02:52:12.539Z,27.00
2022-08-20T02:54:21.982Z,27.00
2022-08-20T02:56:26.346Z,27.00
2022-08-20T02:58:31.057Z,27.00
2022-08-20T03:00:41.677Z,27.00
2022-08-20T03:02:46.848Z,27.10
2022-08-20T03:04:51.228Z,27.10
2022-08-20T03:07:00.134Z,27.10
2022-08-20T03:09:07.208Z,27.10
2022-08-20T03:11:11.855Z,27.20
2022-08-20T03:13:18.597Z,27.10
2022-08-20T03:15:23.222Z,27.20
2022-08-20T03:17:27.667Z,27.30
2022-08-20T03:19:36.952Z,27.20
2022-08-20T03:21:41.403Z,27.30
2022-08-20T03:23:46.115Z,27.40
2022-08-20T03:25:54.626Z,27.40
2022-08-20T03:27:59.800Z,27.50
2022-08-20T03:30:09.123Z,27.50
2022-08-20T03:32:15.921Z,27.70
2022-08-20T03:34:20.591Z,27.80
2022-08-20T03:36:28.738Z,27.80
2022-08-20T03:38:37.563Z,27.90
2022-08-20T03:40:42.243Z,27.90
2022-08-20T03:42:46.631Z,28.00
2022-08-20T03:44:59.065Z,28.00
2022-08-20T03:47:08.792Z,28.10
2022-08-20T03:49:13.445Z,28.10
2022-08-20T03:51:20.098Z,28.20
2022-08-20T03:53:25.113Z,28.30
2022-08-20T03:55:30.246Z,28.40
2022-08-20T03:57:36.883Z,28.50
2022-08-20T03:59:41.297Z,28.50
2022-08-20T04:01:48.074Z,28.50
2022-08-20T04:03:56.583Z,28.60
2022-08-20T04:06:01.460Z,28.50
2022-08-20T04:08:06.317Z,28.60
2022-08-20T04:10:14.217Z,28.60
2022-08-20T04:12:19.153Z,28.60
2022-08-20T04:14:23.552Z,28.60
2022-08-20T04:16:32.196Z,28.60
2022-08-20T04:18:38.161Z,28.60
2022-08-20T04:20:44.050Z,28.70
2022-08-20T04:22:57.548Z,28.70
2022-08-20T04:25:03.931Z,28.70
2022-08-20T04:27:12.359Z,28.70
2022-08-20T04:29:21.355Z,28.70
2022-08-20T04:31:25.856Z,28.70
2022-08-20T04:33:34.205Z,28.80
2022-08-20T04:35:43.010Z,28.70
2022-08-20T04:37:48.498Z,28.70
2022-08-20T04:40:05.214Z,28.70
2022-08-20T04:42:12.015Z,28.70
2022-08-20T04:44:16.403Z,28.70
2022-08-20T04:46:21.446Z,28.60
2022-08-20T04:48:31.693Z,28.70
2022-08-20T04:50:37.946Z,28.60
2022-08-20T04:52:42.324Z,28.70
2022-08-20T04:54:51.031Z,28.70
2022-08-20T04:56:55.428Z,28.80
2022-08-20T04:59:01.411Z,28.80
2022-08-20T05:01:12.914Z,28.90
2022-08-20T05:03:18.224Z,29.00
2022-08-20T05:05:23.583Z,29.10
2022-08-20T05:07:32.432Z,29.20
2022-08-20T05:09:44.090Z,29.20
2022-08-20T05:11:48.455Z,29.30
2022-08-20T05:13:57.052Z,29.30
2022-08-20T05:16:03.684Z,29.30
2022-08-20T05:18:09.012Z,29.20
2022-08-20T05:20:21.441Z,29.20
2022-08-20T05:22:26.180Z,29.10
2022-08-20T05:24:35.453Z,29.00
2022-08-20T05:26:44.015Z,29.00
2022-08-20T05:28:58.743Z,29.10
2022-08-20T05:31:04.240Z,29.10
2022-08-20T05:33:09.243Z,29.20
2022-08-20T05:35:13.813Z,29.10
2022-08-20T05:37:18.968Z,29.20
2022-08-20T05:39:27.926Z,29.20
2022-08-20T05:41:32.360Z,29.10
2022-08-20T05:43:37.029Z,29.20
2022-08-20T05:45:43.852Z,29.40
2022-08-20T05:47:56.437Z,29.40
2022-08-20T05:50:01.381Z,29.50
2022-08-20T05:52:10.404Z,29.50
2022-08-20T05:54:14.857Z,29.50
2022-08-20T05:56:19.805Z,29.40
2022-08-20T05:58:36.106Z,29.40
2022-08-20T06:00:40.838Z,29.50
2022-08-20T06:02:57.401Z,29.50
2022-08-20T06:05:04.253Z,29.60
2022-08-20T06:07:09.119Z,29.70
2022-08-20T06:09:14.639Z,29.80
2022-08-20T06:11:23.599Z,29.80
2022-08-20T06:13:30.061Z,29.80
2022-08-20T06:15:35.381Z,29.90
2022-08-20T06:17:42.946Z,29.90
2022-08-20T06:19:48.627Z,29.90
2022-08-20T06:21:54.161Z,30.00
2022-08-20T06:24:07.583Z,30.00
2022-08-20T06:26:12.142Z,30.10
2022-08-20T06:28:16.752Z,30.10
2022-08-20T06:30:25.334Z,30.10
2022-08-20T06:32:32.706Z,30.10
2022-08-20T06:34:37.859Z,30.10
2022-08-20T06:36:55.870Z,30.20
2022-08-20T06:39:03.034Z,30.30
2022-08-20T06:41:09.080Z,30.20
2022-08-20T06:43:15.836Z,30.20
2022-08-20T06:45:27.293Z,30.20
2022-08-20T06:47:32.502Z,30.20
2022-08-20T06:49:40.995Z,30.30
2022-08-20T06:51:46.193Z,30.30
2022-08-20T06:53:56.305Z,30.30
2022-08-20T06:56:03.567Z,30.20
2022-08-20T06:58:15.657Z,30.20
2022-08-20T07:00:34.730Z,30.10
2022-08-20T07:02:44.055Z,30.10
2022-08-20T07:04:49.097Z,30.10
2022-08-20T07:06:56.483Z,30.20
2022-08-20T07:09:03.762Z,30.30
2022-08-20T07:11:08.354Z,30.30
2022-08-20T07:13:13.479Z,30.30
2022-08-20T07:15:18.391Z,30.30
2022-08-20T07:17:24.260Z,30.30
2022-08-20T07:19:29.159Z,30.30
2022-08-20T07:21:33.938Z,30.30
2022-08-20T07:23:38.700Z,30.10
2022-08-20T07:25:44.356Z,30.00
2022-08-20T07:27:51.977Z,30.00
2022-08-20T07:30:12.746Z,30.00
2022-08-20T07:32:31.984Z,29.90
2022-08-20T07:34:45.518Z,29.90
2022-08-20T07:36:52.817Z,30.00
2022-08-20T07:38:59.818Z,30.10
2022-08-20T07:41:14.499Z,30.10
2022-08-20T07:43:19.187Z,30.10
2022-08-20T07:45:23.614Z,30.10
2022-08-20T07:47:30.204Z,30.10
2022-08-20T07:49:39.274Z,30.20
2022-08-20T07:51:43.956Z,30.20
2022-08-20T07:53:53.208Z,30.20
2022-08-20T07:55:59.220Z,30.30
2022-08-20T07:58:10.230Z,30.30
2022-08-20T08:00:16.836Z,30.30
2022-08-20T08:02:21.889Z,30.30
2022-08-20T08:04:26.824Z,30.40
2022-08-20T08:06:35.258Z,30.40
2022-08-20T08:08:42.138Z,30.30
2022-08-20T08:10:48.919Z,30.20
2022-08-20T08:13:09.443Z,30.20
2022-08-20T08:15:16.761Z,30.20
2022-08-20T08:17:21.363Z,30.20
2022-08-20T08:19:26.515Z,30.30
2022-08-20T08:21:31.644Z,30.30
2022-08-20T08:23:36.265Z,30.30
2022-08-20T08:25:45.529Z,30.40
2022-08-20T08:27:50.960Z,30.40
2022-08-20T08:29:55.742Z,30.40
2022-08-20T08:32:05.239Z,30.50
2022-08-20T08:34:10.123Z,30.40
2022-08-20T08:36:16.692Z,30.50
2022-08-20T08:38:23.609Z,30.60
2022-08-20T08:40:28.314Z,30.50
2022-08-20T08:42:46.414Z,30.60
2022-08-20T08:44:55.232Z,30.50
2022-08-20T08:47:02.652Z,30.50
2022-08-20T08:49:07.791Z,30.50
2022-08-20T08:51:16.005Z,30.40
2022-08-20T08:53:28.529Z,30.50
2022-08-20T08:55:32.999Z,30.40
2022-08-20T08:57:42.039Z,30.30
2022-08-20T09:00:03.599Z,30.40
2022-08-20T09:02:09.872Z,30.30
2022-08-20T09:04:21.634Z,30.20
2022-08-20T09:06:27.147Z,30.20
2022-08-20T09:08:48.911Z,30.20
2022-08-20T09:11:04.140Z,30.20
2022-08-20T09:13:08.465Z,30.20
2022-08-20T09:15:13.227Z,30.20
2022-08-20T09:17:22.971Z,30.20
2022-08-20T09:19:27.782Z,30.20
2022-08-20T09:21:32.306Z,30.10
2022-08-20T09:23:37.209Z,30.10
2022-08-20T09:25:41.772Z,30.10
2022-08-20T09:27:48.404Z,30.10
2022-08-20T09:29:55.414Z,30.00
2022-08-20T09:32:08.352Z,30.00
2022-08-20T09:34:13.827Z,30.00
2022-08-20T09:36:31.826Z,30.00
2022-08-20T09:38:37.469Z,30.00
2022-08-20T09:40:42.077Z,30.00
2022-08-20T09:42:49.842Z,29.90
2022-08-20T09:44:54.421Z,29.80
2022-08-20T09:46:59.522Z,29.90
2022-08-20T09:49:08.948Z,29.80
2022-08-20T09:51:14.901Z,29.80
2022-08-20T09:53:20.051Z,29.80
2022-08-20T09:55:49.023Z,29.80
2022-08-20T09:57:53.977Z,29.80
2022-08-20T10:00:05.038Z,29.80
2022-08-20T10:02:18.194Z,29.70
2022-08-20T10:04:22.736Z,29.70
2022-08-20T10:06:27.778Z,29.70
2022-08-20T10:08:36.616Z,29.70
2022-08-20T10:10:41.612Z,29.70
2022-08-20T10:12:50.575Z,29.60
2022-08-20T10:14:59.047Z,29.60
2022-08-20T10:17:04.964Z,29.60
2022-08-20T10:19:09.771Z,29.60
2022-08-20T10:21:19.209Z,29.50
2022-08-20T10:23:23.575Z,29.50
2022-08-20T10:25:29.836Z,29.40
2022-08-20T10:27:36.312Z,29.40
2022-08-20T10:29:46.249Z,29.40
2022-08-20T10:31:51.167Z,29.40
2022-08-20T10:33:56.223Z,29.40
2022-08-20T10:36:07.137Z,29.40
2022-08-20T10:38:11.757Z,29.40
2022-08-20T10:40:20.205Z,29.40
2022-08-20T10:42:24.973Z,29.40
2022-08-20T10:44:29.410Z,29.40
2022-08-20T10:46:35.978Z,29.40
2022-08-20T10:48:40.621Z,29.40
2022-08-20T10:50:44.938Z,29.40
2022-08-20T10:52:50.863Z,29.40
2022-08-20T10:54:55.722Z,29.30
2022-08-20T10:57:04.080Z,29.30
2022-08-20T10:59:09.721Z,29.30
2022-08-20T11:01:31.197Z,29.30
2022-08-20T11:03:37.445Z,29.20
2022-08-20T11:05:41.960Z,29.30
2022-08-20T11:07:55.314Z,29.20
2022-08-20T11:10:01.189Z,29.30
2022-08-20T11:12:10.378Z,29.30
2022-08-20T11:14:16.699Z,29.20
2022-08-20T11:16:21.410Z,29.20
2022-08-20T11:18:31.497Z,29.20
2022-08-20T11:20:36.035Z,29.20
2022-08-20T11:22:40.397Z,29.20
2022-08-20T11:24:45.149Z,29.20
2022-08-20T11:26:54.317Z,29.20
2022-08-20T11:28:58.914Z,29.20
2022-08-20T11:31:04.333Z,29.20
2022-08-20T11:33:09.122Z,29.20
2022-08-20T11:35:41.170Z,29.20
2022-08-20T11:37:41.571Z,29.20
2022-08-20T11:39:46.090Z,29.20
2022-08-20T11:41:54.809Z,29.10
2022-08-20T11:44:20.682Z,29.10
2022-08-20T11:46:28.471Z,29.10
2022-08-20T11:48:33.158Z,29.10
2022-08-20T11:50:40.927Z,29.10
2022-08-20T11:52:45.619Z,29.10
2022-08-20T11:54:54.686Z,29.10
2022-08-20T11:57:03.586Z,29.10
2022-08-20T11:59:08.129Z,29.10
2022-08-20T12:01:12.872Z,29.10
2022-08-20T12:03:17.802Z,29.10
2022-08-20T12:05:22.390Z,29.10
2022-08-20T12:07:28.884Z,29.10
2022-08-20T12:09:33.288Z,29.10
2022-08-20T12:11:38.016Z,29.10
2022-08-20T12:13:47.740Z,29.10
2022-08-20T12:15:55.605Z,29.10
2022-08-20T12:18:00.334Z,29.10
2022-08-20T12:20:10.141Z,29.10
2022-08-20T12:22:22.475Z,29.10
2022-08-20T12:24:29.973Z,29.10
2022-08-20T12:26:34.282Z,29.10
2022-08-20T12:28:39.170Z,29.00
2022-08-20T12:30:43.552Z,29.00
2022-08-20T12:32:48.010Z,29.00
2022-08-20T12:34:52.662Z,29.00
2022-08-20T12:37:06.089Z,29.00
2022-08-20T12:39:10.494Z,29.00
2022-08-20T12:41:17.120Z,29.00
2022-08-20T12:43:24.813Z,29.00
2022-08-20T12:45:30.213Z,29.00
2022-08-20T12:47:37.999Z,28.90
2022-08-20T12:49:44.154Z,28.90
2022-08-20T12:51:48.497Z,28.90
2022-08-20T12:53:53.380Z,29.00
2022-08-20T12:55:57.916Z,29.00
2022-08-20T12:58:03.797Z,29.00
2022-08-20T13:00:31.571Z,28.70
2022-08-20T13:02:36.939Z,28.00
2022-08-20T13:04:41.488Z,27.50
2022-08-20T13:06:50.649Z,26.80
2022-08-20T13:08:59.936Z,26.20
2022-08-20T13:11:04.662Z,26.10
2022-08-20T13:13:14.651Z,26.20
2022-08-20T13:15:19.672Z,26.10
2022-08-20T13:17:38.756Z,25.90
2022-08-20T13:19:48.190Z,25.80
2022-08-20T13:21:55.046Z,26.10
2022-08-20T13:24:00.048Z,26.30
2022-08-20T13:26:07.976Z,26.40
2022-08-20T13:28:12.835Z,26.40
2022-08-20T13:30:19.603Z,26.30
2022-08-20T13:32:26.447Z,26.40
2022-08-20T13:34:30.879Z,26.50
2022-08-20T13:36:35.968Z,26.50
2022-08-20T13:38:42.496Z,26.60
2022-08-20T13:40:48.827Z,26.70
2022-08-20T13:42:53.657Z,26.80
2022-08-20T13:45:00.748Z,26.80
2022-08-20T13:47:26.808Z,26.80
2022-08-20T13:49:33.245Z,26.60
2022-08-20T13:51:42.525Z,26.80
2022-08-20T13:53:48.171Z,26.90
2022-08-20T13:55:52.762Z,26.70
2022-08-20T13:58:01.508Z,26.80
2022-08-20T14:00:07.841Z,26.80
2022-08-20T14:02:15.121Z,26.80
2022-08-20T14:04:21.540Z,26.80
2022-08-20T14:06:26.451Z,26.60
2022-08-20T14:08:31.027Z,26.60
2022-08-20T14:10:35.706Z,26.50
2022-08-20T14:12:40.285Z,26.60
2022-08-20T14:14:45.564Z,26.60
2022-08-20T14:16:54.426Z,26.70
2022-08-20T14:19:00.988Z,26.60
2022-08-20T14:21:05.700Z,26.60
2022-08-20T14:23:14.536Z,26.60
2022-08-20T14:25:20.079Z,26.40
2022-08-20T14:27:29.097Z,26.40
2022-08-20T14:29:41.400Z,26.50
2022-08-20T14:31:45.810Z,26.40
2022-08-20T14:33:52.697Z,26.40
2022-08-20T14:36:01.111Z,26.40
2022-08-20T14:38:05.475Z,26.50
2022-08-20T14:40:15.679Z,26.40
2022-08-20T14:42:26.048Z,26.40
2022-08-20T14:44:33.640Z,26.40
2022-08-20T14:46:38.080Z,26.30
2022-08-20T14:48:45.964Z,26.40
2022-08-20T14:50:57.866Z,26.40
2022-08-20T14:53:02.775Z,26.50
2022-08-20T14:55:10.842Z,26.50
2022-08-20T14:57:16.537Z,26.50
2022-08-20T14:59:21.284Z,26.50
2022-08-20T15:01:25.916Z,26.60
2022-08-20T15:03:31.663Z,26.50
2022-08-20T15:05:39.340Z,26.50
2022-08-20T15:07:51.866Z,26.50
2022-08-20T15:09:58.595Z,26.50
2022-08-20T15:12:03.049Z,26.60
2022-08-20T15:14:11.646Z,26.60
2022-08-20T15:16:19.358Z,26.50
2022-08-20T15:18:26.160Z,26.50
2022-08-20T15:20:35.894Z,26.60
2022-08-20T15:22:40.979Z,26.50
2022-08-20T15:24:45.279Z,26.50
2022-08-20T15:26:53.977Z,26.50
2022-08-20T15:28:58.368Z,26.50
2022-08-20T15:31:02.946Z,26.60
2022-08-20T15:33:10.873Z,26.50
2022-08-20T15:35:15.294Z,26.50
2022-08-20T15:37:21.976Z,26.50
2022-08-20T15:39:31.310Z,26.50
2022-08-20T15:41:36.119Z,26.50
2022-08-20T15:43:40.513Z,26.50
2022-08-20T15:45:48.390Z,26.40
2022-08-20T15:48:16.822Z,26.40
2022-08-20T15:50:53.126Z,26.40
2022-08-20T15:52:59.674Z,26.40
2022-08-20T15:55:04.134Z,26.40
2022-08-20T15:57:27.917Z,26.40
2022-08-20T15:59:57.239Z,26.40
2022-08-20T16:02:26.334Z,26.40
2022-08-20T16:05:03.957Z,26.40
2022-08-20T16:07:19.089Z,26.40
2022-08-20T16:09:45.505Z,26.40
2022-08-20T16:12:06.843Z,26.40
2022-08-20T16:14:23.137Z,26.40
2022-08-20T16:16:37.464Z,26.30
2022-08-20T16:18:44.937Z,26.20
2022-08-20T16:20:52.974Z,26.20
2022-08-20T16:22:57.897Z,26.20
2022-08-20T16:25:05.943Z,26.20
2022-08-20T16:27:44.219Z,26.20
2022-08-20T16:30:04.221Z,26.20
2022-08-20T16:32:14.107Z,26.20
2022-08-20T16:34:40.193Z,26.30
2022-08-20T16:37:05.347Z,26.30
2022-08-20T16:39:20.623Z,26.30
2022-08-20T16:41:46.207Z,26.20
2022-08-20T16:43:57.564Z,26.20
2022-08-20T16:46:18.311Z,26.20
2022-08-20T16:48:22.644Z,26.30
2022-08-20T16:50:41.418Z,26.20
2022-08-20T16:52:48.938Z,26.20
2022-08-20T16:54:53.368Z,26.20
2022-08-20T16:57:05.749Z,26.20
2022-08-20T16:59:18.385Z,26.20
2022-08-20T17:01:31.876Z,26.20
2022-08-20T17:03:40.533Z,26.10
2022-08-20T17:05:54.217Z,26.10
2022-08-20T17:08:03.216Z,26.20
2022-08-20T17:10:20.989Z,26.20
2022-08-20T17:12:29.937Z,26.20
2022-08-20T17:14:34.699Z,26.30
2022-08-20T17:16:59.028Z,26.30
2022-08-20T17:19:14.600Z,26.30
2022-08-20T17:21:29.053Z,26.30
2022-08-20T17:23:54.582Z,26.30
2022-08-20T17:26:05.963Z,26.30
2022-08-20T17:28:21.259Z,26.20
2022-08-20T17:30:30.512Z,26.30
2022-08-20T17:32:37.410Z,26.30
2022-08-20T17:34:48.283Z,26.30
2022-08-20T17:37:19.729Z,26.20
2022-08-20T17:39:29.899Z,26.30
2022-08-20T17:41:35.403Z,26.30
2022-08-20T17:43:43.488Z,26.30
2022-08-20T17:45:52.131Z,26.20
2022-08-20T17:47:58.127Z,26.20
2022-08-20T17:50:12.607Z,26.20
2022-08-20T17:52:33.633Z,26.20
2022-08-20T17:54:41.602Z,26.20
2022-08-20T17:56:46.177Z,26.20
2022-08-20T17:58:58.168Z,26.20
2022-08-20T18:01:16.037Z,26.20
2022-08-20T18:03:27.559Z,26.20
2022-08-20T18:05:37.242Z,26.20
2022-08-20T18:07:58.966Z,26.20
2022-08-20T18:10:12.757Z,26.10
2022-08-20T18:12:40.216Z,26.10
2022-08-20T18:15:07.679Z,26.10
2022-08-20T18:17:38.729Z,26.10
2022-08-20T18:20:10.236Z,26.10
2022-08-20T18:22:26.255Z,26.00
2022-08-20T18:25:02.587Z,26.00
2022-08-20T18:27:10.439Z,26.00
2022-08-20T18:29:17.826Z,26.00
2022-08-20T18:31:49.655Z,26.00
2022-08-20T18:33:55.945Z,26.10
2022-08-20T18:36:29.542Z,26.10
2022-08-20T18:38:38.214Z,26.00
2022-08-20T18:40:44.952Z,26.00
2022-08-20T18:42:49.689Z,26.00
2022-08-20T18:44:57.059Z,26.00
2022-08-20T18:47:03.270Z,26.00
2022-08-20T18:49:08.817Z,25.90
2022-08-20T18:51:15.036Z,26.00
2022-08-20T18:53:21.773Z,26.00
2022-08-20T18:55:47.192Z,25.90
2022-08-20T18:58:03.497Z,25.90
2022-08-20T19:00:19.714Z,26.00
2022-08-20T19:02:28.313Z,26.00
2022-08-20T19:04:34.536Z,26.00
2022-08-20T19:06:57.850Z,26.00
2022-08-20T19:09:33.145Z,25.90
2022-08-20T19:12:17.251Z,26.00
2022-08-20T19:14:41.786Z,26.00
2022-08-20T19:16:50.817Z,26.10
2022-08-20T19:18:58.747Z,26.10
2022-08-20T19:21:04.048Z,26.10
2022-08-20T19:23:21.165Z,26.10
2022-08-20T19:25:36.209Z,26.10
2022-08-20T19:27:41.181Z,26.00
2022-08-20T19:29:48.914Z,26.00
2022-08-20T19:31:59.449Z,26.00
2022-08-20T19:34:22.562Z,26.00
2022-08-20T19:36:29.163Z,26.10
2022-08-20T19:38:35.171Z,26.10
2022-08-20T19:40:46.066Z,26.10
2022-08-20T19:42:52.680Z,26.10
2022-08-20T19:45:12.195Z,26.10
2022-08-20T19:47:20.254Z,26.10
2022-08-20T19:49:58.023Z,26.10
2022-08-20T19:52:36.688Z,26.10
2022-08-20T19:54:53.126Z,26.10
2022-08-20T19:56:59.938Z,26.10
2022-08-20T19:59:10.872Z,26.00
2022-08-20T20:01:21.433Z,26.00
2022-08-20T20:03:31.146Z,26.00
2022-08-20T20:05:38.561Z,26.00
2022-08-20T20:07:52.142Z,26.00
2022-08-20T20:09:58.387Z,26.00
2022-08-20T20:12:04.750Z,26.00
2022-08-20T20:14:12.089Z,26.00
2022-08-20T20:16:18.663Z,26.00
2022-08-20T20:18:25.648Z,26.00
2022-08-20T20:20:34.027Z,26.00
2022-08-20T20:22:51.951Z,25.90
2022-08-20T20:25:06.767Z,25.90
2022-08-20T20:27:23.378Z,26.00
2022-08-20T20:29:35.056Z,25.90
2022-08-20T20:31:57.368Z,25.90
2022-08-20T20:34:06.762Z,25.90
2022-08-20T20:36:15.573Z,25.80
2022-08-20T20:38:30.534Z,25.80
2022-08-20T20:40:45.831Z,25.60
2022-08-20T20:43:06.710Z,25.70
2022-08-20T20:45:21.425Z,25.80
2022-08-20T20:47:28.928Z,25.80
2022-08-20T20:49:36.607Z,25.90
2022-08-20T20:51:45.448Z,25.90
2022-08-20T20:53:54.957Z,25.90
2022-08-20T20:56:01.348Z,25.90
2022-08-20T20:58:06.368Z,25.90
2022-08-20T21:00:14.753Z,25.90
2022-08-20T21:02:22.675Z,25.90
2022-08-20T21:04:29.425Z,25.90
2022-08-20T21:06:33.897Z,25.90
2022-08-20T21:08:39.050Z,25.80
2022-08-20T21:10:45.023Z,25.70
2022-08-20T21:12:53.242Z,25.80
2022-08-20T21:14:57.848Z,25.80
2022-08-20T21:17:05.623Z,25.80
2022-08-20T21:19:12.552Z,25.80
2022-08-20T21:21:17.119Z,25.80
2022-08-20T21:23:40.092Z,25.70
2022-08-20T21:25:48.535Z,25.80
2022-08-20T21:27:53.580Z,25.80
2022-08-20T21:29:58.738Z,25.80
2022-08-20T21:32:06.094Z,25.80
2022-08-20T21:34:10.721Z,25.80
2022-08-20T21:36:17.412Z,25.80
2022-08-20T21:38:24.280Z,25.80
2022-08-20T21:40:28.636Z,25.80
2022-08-20T21:42:37.410Z,25.70
2022-08-20T21:44:47.963Z,25.80
2022-08-20T21:46:55.200Z,25.70
2022-08-20T21:49:01.305Z,25.80
2022-08-20T21:51:10.182Z,25.80
2022-08-20T21:53:16.287Z,25.80
2022-08-20T21:55:24.079Z,25.70
2022-08-20T21:57:30.918Z,25.80
2022-08-20T21:59:48.525Z,25.80
2022-08-20T22:01:56.032Z,25.80
2022-08-20T22:04:05.225Z,25.70
2022-08-20T22:06:11.099Z,25.70
2022-08-20T22:08:16.994Z,25.80
2022-08-20T22:10:23.736Z,25.70
2022-08-20T22:12:29.557Z,25.70
2022-08-20T22:14:36.587Z,25.60
2022-08-20T22:16:45.581Z,25.60
2022-08-20T22:18:50.591Z,25.70
2022-08-20T22:20:57.783Z,25.60
2022-08-20T22:23:05.082Z,25.50
2022-08-20T22:25:10.285Z,25.60
2022-08-20T22:27:29.057Z,25.50
2022-08-20T22:29:37.557Z,25.60
2022-08-20T22:31:42.975Z,25.60
2022-08-20T22:33:50.372Z,25.60
2022-08-20T22:35:57.042Z,25.60
2022-08-20T22:38:02.321Z,25.60
2022-08-20T22:40:09.685Z,25.60
2022-08-20T22:42:16.402Z,25.60
2022-08-20T22:44:21.501Z,25.60
2022-08-20T22:46:32.983Z,25.60
2022-08-20T22:48:39.334Z,25.50
2022-08-20T22:50:44.321Z,25.50
2022-08-20T22:52:51.138Z,25.50
2022-08-20T22:54:57.710Z,25.50
2022-08-20T22:57:04.256Z,25.60
2022-08-20T22:59:13.465Z,25.60
2022-08-20T23:01:21.572Z,25.60
2022-08-20T23:03:39.138Z,25.60
2022-08-20T23:05:51.167Z,25.60
2022-08-20T23:07:58.159Z,25.60
2022-08-20T23:10:02.563Z,25.60
2022-08-20T23:12:09.020Z,25.60
2022-08-20T23:14:15.331Z,25.60
2022-08-20T23:16:20.241Z,25.60
2022-08-20T23:18:25.993Z,25.70
2022-08-20T23:20:31.487Z,25.60
2022-08-20T23:22:36.027Z,25.70
2022-08-20T23:24:43.536Z,25.60
2022-08-20T23:26:53.314Z,25.60
2022-08-20T23:28:58.349Z,25.60
2022-08-20T23:31:03.469Z,25.70
2022-08-20T23:33:10.551Z,25.70
2022-08-20T23:35:15.869Z,25.80
2022-08-20T23:37:21.018Z,25.70
2022-08-20T23:39:26.018Z,25.70
2022-08-20T23:41:30.807Z,25.70
2022-08-20T23:43:37.053Z,25.80
2022-08-20T23:45:45.573Z,25.80
2022-08-20T23:47:51.243Z,25.70
2022-08-20T23:49:58.677Z,25.70
2022-08-20T23:52:04.886Z,25.80
2022-08-20T23:54:09.953Z,25.80
2022-08-20T23:56:14.576Z,25.80
2022-08-20T23:58:19.177Z,25.90
